Time;durP1;ratioP1;P1;durP2;ratioP2;P2;SDS_P1;SDS_P2;PMS_P1;PMS_P2;Temp;Humidity;BMP_temperature;BMP_pressure;BME280_temperature;BME280_humidity;BME280_pressure;Samples;Min_cycle;Max_cycle;Signal;HPM_P1;HPM_P2
2021/12/05 00:18:30;;;;;;;2.38;1.30;;;;;;;4.03;100.00;99082.13;4994908;28;20480;-67
2021/12/05 00:23:49;;;;;;;2.28;1.42;;;;;;;3.97;100.00;99080.09;5013099;28;20117;-67
2021/12/05 00:26:19;;;;;;;2.33;0.95;;;;;;;4.00;100.00;99082.81;5014241;28;20180;-67
2021/12/05 00:31:38;;;;;;;3.78;1.85;;;;;;;4.02;100.00;99079.81;5013222;28;20529;-67
2021/12/05 00:34:31;;;;;;;3.20;0.93;;;;;;;3.96;100.00;99079.31;5011455;28;20099;-66
2021/12/05 01:01:43;;;;;;;2.03;1.17;;;;;;;3.85;100.00;99125.47;4968752;28;20487;-67
2021/12/05 01:15:17;;;;;;;2.65;1.55;;;;;;;3.89;100.00;99137.72;5007011;28;20038;-68
2021/12/05 01:17:25;;;;;;;3.58;1.50;;;;;;;3.92;100.00;99141.59;4985658;28;20046;-66
2021/12/05 01:19:52;;;;;;;2.70;1.50;;;;;;;3.95;100.00;99138.25;5008044;28;20060;-67
2021/12/05 01:22:20;;;;;;;2.78;1.58;;;;;;;3.94;100.00;99136.69;5008397;28;20029;-67
2021/12/05 01:27:28;;;;;;;3.28;1.55;;;;;;;3.89;100.00;99136.97;5027115;28;20046;-67
2021/12/05 01:30:05;;;;;;;3.55;1.98;;;;;;;3.91;100.00;99143.47;5010981;28;20038;-67
2021/12/05 01:51:48;;;;;;;1.98;1.58;;;;;;;3.87;100.00;99149.84;5011304;28;20042;-67
2021/12/05 01:59:10;;;;;;;2.83;1.20;;;;;;;3.92;100.00;99163.66;5027581;28;20069;-67
2021/12/05 02:02:20;;;;;;;2.05;1.20;;;;;;;3.94;100.00;99158.00;5026846;28;20057;-67
2021/12/05 02:42:14;;;;;;;0.95;0.82;;;;;;;3.82;100.00;99192.69;5027260;28;20033;-67
2021/12/05 02:44:45;;;;;;;2.38;0.98;;;;;;;3.89;100.00;99190.97;5006538;28;20038;-67
2021/12/05 02:47:17;;;;;;;2.75;1.38;;;;;;;3.84;100.00;99193.13;5011153;28;20045;-67
2021/12/05 02:49:45;;;;;;;2.08;1.45;;;;;;;3.82;100.00;99184.72;5026040;28;20080;-67
2021/12/05 02:52:19;;;;;;;2.85;1.65;;;;;;;3.80;100.00;99197.59;5019865;28;20069;-67
2021/12/05 02:54:51;;;;;;;3.20;1.33;;;;;;;3.85;100.00;99190.16;5008622;28;20065;-67
2021/12/05 02:57:26;;;;;;;3.60;1.95;;;;;;;3.88;100.00;99188.66;5003715;28;20069;-67
2021/12/05 02:59:56;;;;;;;5.00;1.63;;;;;;;3.86;100.00;99189.00;5008370;28;20041;-67
2021/12/05 03:02:27;;;;;;;3.00;1.63;;;;;;;3.85;100.00;99195.47;5026252;28;20056;-67
2021/12/05 03:04:56;;;;;;;2.90;1.23;;;;;;;3.89;100.00;99190.22;5003092;28;20038;-67
2021/12/05 03:07:27;;;;;;;4.18;2.10;;;;;;;3.84;100.00;99193.91;4991422;28;20069;-66
2021/12/05 03:09:53;;;;;;;3.65;1.33;;;;;;;3.82;100.00;99195.38;4995126;28;20030;-66
2021/12/05 03:12:19;;;;;;;3.97;1.70;;;;;;;3.80;100.00;99193.06;5009363;28;20041;-66
2021/12/05 03:14:48;;;;;;;2.70;1.75;;;;;;;3.86;100.00;99194.34;5010408;28;20462;-67
2021/12/05 03:17:14;;;;;;;3.65;1.88;;;;;;;3.86;100.00;99198.88;5009857;28;20187;-66
2021/12/05 03:19:40;;;;;;;6.22;2.47;;;;;;;3.87;100.00;99205.75;5022351;28;20557;-67
2021/12/05 03:22:06;;;;;;;4.35;1.50;;;;;;;3.77;100.00;99209.72;5009751;28;20034;-66
2021/12/05 03:24:34;;;;;;;6.65;1.90;;;;;;;3.71;100.00;99210.31;5008381;28;20091;-67
2021/12/05 03:27:00;;;;;;;2.65;1.52;;;;;;;3.75;100.00;99213.84;5026395;28;20102;-67
2021/12/05 03:29:25;;;;;;;3.47;1.70;;;;;;;3.77;100.00;99208.94;5009332;28;20133;-67
2021/12/05 03:31:52;;;;;;;6.15;2.25;;;;;;;3.70;100.00;99211.44;5011207;28;20034;-67
2021/12/05 03:34:22;;;;;;;6.38;2.38;;;;;;;3.77;100.00;99215.06;5025434;28;20033;-67
2021/12/05 03:36:52;;;;;;;3.83;1.88;;;;;;;3.74;100.00;99214.94;5006859;28;20398;-67
2021/12/05 03:39:18;;;;;;;4.22;1.77;;;;;;;3.76;100.00;99218.03;5008967;28;20113;-67
2021/12/05 03:41:45;;;;;;;2.30;1.55;;;;;;;3.82;100.00;99211.34;5007527;28;20053;-66
2021/12/05 03:44:14;;;;;;;4.43;1.33;;;;;;;3.79;100.00;99209.38;5003988;28;20030;-67
2021/12/05 03:46:40;;;;;;;6.20;2.17;;;;;;;3.77;100.00;99214.28;5008408;28;20486;-67
2021/12/05 03:49:09;;;;;;;4.82;1.85;;;;;;;3.73;100.00;99214.19;4992999;28;20030;-66
2021/12/05 03:51:39;;;;;;;4.28;2.25;;;;;;;3.79;100.00;99222.69;4994817;28;20032;-66
2021/12/05 03:54:06;;;;;;;3.72;2.30;;;;;;;3.79;100.00;99220.03;5010172;28;20035;-67
2021/12/05 03:56:34;;;;;;;4.53;1.63;;;;;;;3.79;100.00;99218.13;5013540;28;20479;-66
2021/12/05 03:59:00;;;;;;;4.28;2.30;;;;;;;3.74;100.00;99214.94;5014834;28;20117;-66
2021/12/05 04:01:25;;;;;;;5.15;2.10;;;;;;;3.75;100.00;99219.94;5009922;28;20120;-66
2021/12/05 04:03:53;;;;;;;4.32;1.75;;;;;;;3.82;100.00;99212.13;4997559;28;20108;-67
2021/12/05 04:06:22;;;;;;;3.20;2.20;;;;;;;3.83;100.00;99220.88;5006457;28;20038;-66
2021/12/05 04:08:49;;;;;;;3.58;1.45;;;;;;;3.81;100.00;99231.09;5011528;28;20064;-67
2021/12/05 04:11:22;;;;;;;5.18;2.03;;;;;;;3.80;100.00;99235.66;5009446;28;20055;-66
2021/12/05 04:13:48;;;;;;;4.10;2.20;;;;;;;3.82;100.00;99243.28;5007098;28;20052;-67
2021/12/05 04:16:15;;;;;;;7.68;2.97;;;;;;;3.83;100.00;99260.81;5029467;28;20109;-67
2021/12/05 04:18:45;;;;;;;6.32;2.80;;;;;;;3.77;100.00;99264.84;5029385;28;20054;-67
2021/12/05 04:21:11;;;;;;;7.20;2.75;;;;;;;3.81;100.00;99263.81;5008872;28;20026;-67
2021/12/05 04:23:37;;;;;;;3.88;1.85;;;;;;;3.83;100.00;99279.44;5013127;28;20114;-67
2021/12/05 04:26:03;;;;;;;5.03;2.88;;;;;;;3.85;100.00;99279.88;5013005;28;20120;-66
2021/12/05 04:28:29;;;;;;;3.58;1.92;;;;;;;3.80;100.00;99278.22;5025911;28;20037;-67
2021/12/05 04:30:58;;;;;;;4.07;2.55;;;;;;;3.82;100.00;99280.53;5012007;28;20038;-67
2021/12/05 04:33:24;;;;;;;5.28;1.77;;;;;;;3.79;100.00;99289.22;5011777;28;20061;-66
2021/12/05 04:35:52;;;;;;;5.15;2.10;;;;;;;3.81;100.00;99287.00;5009506;28;20099;-67
2021/12/05 04:38:19;;;;;;;8.02;2.75;;;;;;;3.82;100.00;99288.53;5012187;28;20034;-67
2021/12/05 04:40:48;;;;;;;3.03;2.20;;;;;;;3.90;100.00;99292.91;5012133;28;20511;-67
2021/12/05 04:43:15;;;;;;;4.63;2.33;;;;;;;3.84;100.00;99294.28;5022040;28;20045;-67
2021/12/05 04:45:42;;;;;;;6.47;2.50;;;;;;;3.85;100.00;99303.84;5010756;28;20426;-67
2021/12/05 04:48:08;;;;;;;2.85;1.60;;;;;;;3.81;100.00;99305.63;5027717;28;20084;-67
2021/12/05 04:50:37;;;;;;;6.95;2.63;;;;;;;3.80;100.00;99304.84;5019008;28;20030;-66
2021/12/05 04:53:06;;;;;;;6.10;2.17;;;;;;;3.83;100.00;99306.06;5004606;28;20042;-67
2021/12/05 04:55:32;;;;;;;5.55;2.42;;;;;;;3.81;100.00;99305.63;5010291;28;20030;-67
2021/12/05 04:58:01;;;;;;;2.97;1.45;;;;;;;3.80;100.00;99314.72;5012469;28;20091;-66
2021/12/05 05:00:34;;;;;;;3.38;1.67;;;;;;;3.71;100.00;99316.78;5011982;28;20069;-67
2021/12/05 05:03:00;;;;;;;5.00;2.22;;;;;;;3.70;100.00;99321.31;5011899;28;20045;-67
2021/12/05 05:05:30;;;;;;;6.53;2.72;;;;;;;3.71;100.00;99324.75;5013570;28;20046;-68
2021/12/05 05:07:56;;;;;;;7.22;2.90;;;;;;;3.80;100.00;99322.69;5010325;28;20034;-67
2021/12/05 05:10:27;;;;;;;6.15;2.97;;;;;;;3.76;100.00;99333.25;5012515;28;20498;-67
2021/12/05 05:12:53;;;;;;;2.63;1.70;;;;;;;3.78;100.00;99333.69;5009726;28;20038;-67
2021/12/05 05:15:22;;;;;;;6.95;3.20;;;;;;;3.82;100.00;99333.78;5012635;28;20398;-68
2021/12/05 05:17:50;;;;;;;3.03;1.33;;;;;;;3.77;100.00;99340.16;5013089;28;20042;-67
2021/12/05 05:23:17;;;;;;;5.63;2.83;;;;;;;3.73;100.00;99343.84;5010804;28;20120;-67
2021/12/05 05:28:51;;;;;;;8.27;3.05;;;;;;;3.70;100.00;99355.16;5010753;28;20049;-66
2021/12/05 05:51:58;;;;;;;6.30;2.72;;;;;;;3.76;100.00;99377.72;5005266;28;20521;-67
2021/12/05 05:54:24;;;;;;;7.80;2.30;;;;;;;3.72;100.00;99384.88;5009297;28;20033;-67
2021/12/05 05:56:56;;;;;;;3.83;1.65;;;;;;;3.74;100.00;99391.38;5012449;28;20041;-66
2021/12/05 05:59:26;;;;;;;8.48;3.25;;;;;;;3.70;100.00;99390.53;5009071;28;20113;-67
2021/12/05 06:04:19;;;;;;;7.28;2.88;;;;;;;3.71;100.00;99391.31;5011029;28;20281;-67
2021/12/05 06:06:44;;;;;;;3.78;2.25;;;;;;;3.67;100.00;99389.34;5012520;28;20743;-67
2021/12/05 06:09:10;;;;;;;5.60;2.95;;;;;;;3.68;100.00;99387.41;5011454;28;20034;-66
2021/12/05 06:11:36;;;;;;;5.60;2.38;;;;;;;3.76;100.00;99391.03;5008673;28;20034;-67
2021/12/05 06:14:03;;;;;;;6.78;2.83;;;;;;;3.78;100.00;99391.47;5009495;28;20034;-66
2021/12/05 06:16:31;;;;;;;1.88;1.52;;;;;;;3.82;100.00;99401.13;5011004;28;20513;-66
2021/12/05 06:18:58;;;;;;;4.93;2.13;;;;;;;3.73;100.00;99395.19;5027489;28;20045;-67
2021/12/05 06:21:23;;;;;;;4.60;2.28;;;;;;;3.75;100.00;99408.94;5007618;28;20498;-67
2021/12/05 06:23:49;;;;;;;8.38;2.90;;;;;;;3.78;100.00;99410.91;5009718;28;20042;-66
2021/12/05 06:26:21;;;;;;;8.00;2.80;;;;;;;3.79;100.00;99411.69;5011402;28;20041;-66
2021/12/05 06:28:57;;;;;;;6.80;3.63;;;;;;;3.78;100.00;99405.56;5012005;28;20033;-67
2021/12/05 06:47:26;;;;;;;4.13;2.10;;;;;;;3.69;100.00;99452.88;5008223;28;20546;-66
2021/12/05 06:49:52;;;;;;;6.05;1.60;;;;;;;3.72;100.00;99451.41;5011059;28;20026;-66
2021/12/05 06:52:17;;;;;;;4.47;2.45;;;;;;;3.68;100.00;99454.75;5011392;28;20113;-66
2021/12/05 06:54:43;;;;;;;5.28;2.15;;;;;;;3.71;100.00;99457.84;5008057;28;20510;-66
2021/12/05 06:57:10;;;;;;;3.60;1.38;;;;;;;3.73;100.00;99455.63;5011338;28;20040;-66
2021/12/05 06:59:39;;;;;;;4.10;1.92;;;;;;;3.74;100.00;99470.47;5010654;28;20038;-66
2021/12/05 07:02:08;;;;;;;5.38;2.55;;;;;;;3.77;100.00;99473.25;5009153;28;20038;-66
2021/12/05 07:07:04;;;;;;;4.70;2.05;;;;;;;3.68;100.00;99475.25;5011162;28;20037;-66
2021/12/05 07:09:30;;;;;;;3.95;1.65;;;;;;;3.66;100.00;99486.25;5025536;28;20033;-66
2021/12/05 07:16:58;;;;;;;4.80;2.35;;;;;;;3.63;100.00;99483.50;5008157;28;20042;-68
2021/12/05 07:24:30;;;;;;;5.43;1.42;;;;;;;3.65;100.00;99495.34;5010416;28;20116;-67
2021/12/05 07:40:29;;;;;;;3.28;1.75;;;;;;;3.66;100.00;99520.06;4994605;28;20030;-65
2021/12/05 07:43:02;;;;;;;10.05;2.38;;;;;;;3.68;100.00;99528.47;4998366;28;20042;-66
2021/12/05 07:45:35;;;;;;;4.18;1.90;;;;;;;3.63;100.00;99545.47;5009411;28;20105;-68
2021/12/05 07:48:12;;;;;;;5.78;2.45;;;;;;;3.71;100.00;99538.47;5010931;28;20038;-67
2021/12/05 07:51:26;;;;;;;4.20;1.85;;;;;;;3.74;100.00;99551.09;5008996;28;20042;-66
2021/12/05 07:53:36;;;;;;;3.78;2.20;;;;;;;3.68;100.00;99550.56;4996254;28;20050;-67
2021/12/05 07:56:14;;;;;;;5.45;2.35;;;;;;;3.65;100.00;99555.78;4991332;28;20050;-67
2021/12/05 07:59:08;;;;;;;5.00;1.95;;;;;;;3.64;100.00;99547.00;4991255;28;20077;-69
2021/12/05 08:15:22;;;;;;;5.60;2.10;;;;;;;3.52;100.00;99586.19;5004117;28;20064;-66
2021/12/05 08:17:53;;;;;;;4.95;2.13;;;;;;;3.54;100.00;99591.94;4997090;28;20037;-67
2021/12/05 08:20:34;;;;;;;5.50;2.28;;;;;;;3.58;100.00;99600.81;5002363;28;20034;-67
2021/12/05 08:23:01;;;;;;;;;;;;;;;3.60;100.00;99604.69;5000666;28;20061;-68
2021/12/05 08:25:29;;;;;;;5.88;2.20;;;;;;;3.58;100.00;99606.91;5001863;28;19956;-67
2021/12/05 08:28:06;;;;;;;5.03;1.92;;;;;;;3.56;100.00;99619.00;4986722;28;20034;-66
2021/12/05 08:30:36;;;;;;;3.97;2.22;;;;;;;3.58;100.00;99620.22;4997707;28;20113;-67
2021/12/05 08:44:14;;;;;;;5.40;1.95;;;;;;;3.57;100.00;99623.22;4970353;28;20050;-66
2021/12/05 09:30:43;;;;;;;2.30;1.45;;;;;;;3.62;100.00;99703.59;5001342;28;20081;-66
2021/12/05 10:14:17;;;;;;;4.68;2.10;;;;;;;3.78;100.00;99758.84;5003243;28;20066;-67
2021/12/05 10:37:45;;;;;;;7.50;2.78;;;;;;;4.21;100.00;99773.19;5011959;28;20038;-67
2021/12/05 10:40:18;;;;;;;4.80;2.40;;;;;;;4.28;100.00;99777.94;5007219;28;20100;-66
2021/12/05 10:42:46;;;;;;;7.53;2.47;;;;;;;4.18;100.00;99779.16;5007839;28;20040;-67
2021/12/05 10:45:21;;;;;;;10.25;2.53;;;;;;;4.29;100.00;99779.50;4989869;28;20041;-66
2021/12/05 10:47:52;;;;;;;5.13;2.17;;;;;;;4.12;100.00;99791.16;5009756;28;20042;-65
2021/12/05 10:50:43;;;;;;;6.72;2.30;;;;;;;4.17;100.00;99790.16;5010639;28;20048;-66
2021/12/05 10:53:28;;;;;;;7.47;3.45;;;;;;;4.13;100.00;99803.38;5011069;28;20073;-65
2021/12/05 10:56:11;;;;;;;4.47;2.45;;;;;;;4.16;100.00;99793.94;5011096;28;20069;-66
2021/12/05 10:58:54;;;;;;;4.55;2.35;;;;;;;4.25;100.00;99797.25;4991696;28;20395;-66
2021/12/05 11:01:20;;;;;;;8.63;3.25;;;;;;;4.31;100.00;99801.25;4991302;28;20038;-65
2021/12/05 11:03:47;;;;;;;8.90;2.70;;;;;;;4.32;100.00;99806.25;4999908;28;20041;-66
2021/12/05 11:06:24;;;;;;;6.10;2.88;;;;;;;4.33;100.00;99804.38;5001828;28;20578;-66
2021/12/05 11:08:56;;;;;;;10.25;2.70;;;;;;;4.30;100.00;99813.81;5000368;28;20463;-66
2021/12/05 11:11:23;;;;;;;4.72;3.10;;;;;;;4.37;100.00;99818.59;4996496;28;20061;-66
2021/12/05 11:13:50;;;;;;;4.80;2.75;;;;;;;4.44;100.00;99808.13;5001465;28;20046;-66
2021/12/05 11:16:55;;;;;;;9.90;3.17;;;;;;;4.46;100.00;99821.91;5000211;28;20048;-66
2021/12/05 11:19:29;;;;;;;8.32;3.20;;;;;;;4.43;100.00;99820.66;4948129;29;20027;-66
2021/12/05 11:22:01;;;;;;;6.20;2.67;;;;;;;4.53;100.00;99830.09;4991585;28;20719;-66
2021/12/05 11:24:32;;;;;;;12.68;4.40;;;;;;;4.61;100.00;99829.22;4999860;28;20446;-66
2021/12/05 11:27:04;;;;;;;5.13;2.42;;;;;;;4.57;100.00;99839.00;4998796;28;20442;-67
2021/12/05 11:29:42;;;;;;;8.20;3.15;;;;;;;4.54;100.00;99837.00;4994376;28;20030;-66
2021/12/05 11:32:10;;;;;;;4.35;2.67;;;;;;;4.56;100.00;99835.56;4998254;28;20329;-66
2021/12/05 11:34:36;;;;;;;9.00;3.85;;;;;;;4.49;100.00;99838.00;4987216;28;20036;-67
2021/12/05 11:37:02;;;;;;;3.45;2.17;;;;;;;4.49;100.00;99839.91;4990839;28;20969;-66
2021/12/05 11:39:27;;;;;;;6.43;3.08;;;;;;;4.51;100.00;99833.09;4996600;28;20030;-66
2021/12/05 11:41:56;;;;;;;7.47;3.40;;;;;;;4.51;100.00;99840.31;5000219;28;20036;-66
2021/12/05 11:44:24;;;;;;;6.57;2.97;;;;;;;4.51;100.00;99835.00;4987660;28;20113;-66
2021/12/05 11:46:50;;;;;;;7.45;3.55;;;;;;;4.51;100.00;99835.00;4989432;28;20041;-65
2021/12/05 11:49:22;;;;;;;8.73;4.00;;;;;;;4.54;100.00;99840.44;4995333;28;20121;-66
2021/12/05 11:51:58;;;;;;;8.90;3.90;;;;;;;4.54;100.00;99845.00;5003230;28;20045;-67
2021/12/05 11:54:23;;;;;;;10.18;3.60;;;;;;;4.55;100.00;99842.00;4988282;28;20380;-67
2021/12/05 11:57:21;;;;;;;5.20;2.65;;;;;;;4.43;100.00;99844.66;4990102;28;20030;-67
2021/12/05 12:00:03;;;;;;;7.00;2.53;;;;;;;4.46;100.00;99848.56;4997741;28;20562;-65
2021/12/05 12:02:49;;;;;;;14.68;3.40;;;;;;;4.41;100.00;99856.78;5001660;28;20038;-67
2021/12/05 12:05:20;;;;;;;7.32;2.78;;;;;;;4.42;100.00;99850.31;5002388;28;20271;-66
2021/12/05 12:07:53;;;;;;;9.73;3.28;;;;;;;4.35;100.00;99852.78;4995097;28;21589;-67
2021/12/05 12:10:47;;;;;;;9.13;2.03;;;;;;;4.45;100.00;99857.66;4999187;28;20038;-66
2021/12/05 12:13:18;;;;;;;9.27;3.17;;;;;;;4.49;100.00;99850.56;4995378;28;20136;-66
2021/12/05 12:15:46;;;;;;;8.45;3.45;;;;;;;4.44;100.00;99859.56;4999263;28;20101;-67
2021/12/05 12:18:26;;;;;;;9.60;3.47;;;;;;;4.50;100.00;99855.56;5005753;28;20092;-67
2021/12/05 12:20:52;;;;;;;7.45;3.60;;;;;;;4.48;100.00;99860.44;5008559;28;20022;-67
2021/12/05 12:23:19;;;;;;;7.18;3.15;;;;;;;4.32;100.00;99861.41;5002562;28;20475;-66
2021/12/05 12:25:48;;;;;;;14.57;3.75;;;;;;;4.28;100.00;99856.00;5005897;28;20478;-66
2021/12/05 12:28:15;;;;;;;8.30;3.15;;;;;;;4.22;100.00;99861.88;5009621;28;20080;-66
2021/12/05 12:30:44;;;;;;;9.30;4.18;;;;;;;4.30;100.00;99864.44;5008737;28;20034;-66
2021/12/05 12:33:16;;;;;;;11.13;3.55;;;;;;;4.24;100.00;99873.00;5003578;28;20041;-66
2021/12/05 12:35:45;;;;;;;11.95;4.07;;;;;;;4.24;100.00;99873.00;5005658;28;20089;-66
2021/12/05 12:38:32;;;;;;;6.50;3.25;;;;;;;4.27;100.00;99864.31;5004303;28;20065;-67
2021/12/05 12:41:01;;;;;;;7.43;3.53;;;;;;;4.27;100.00;99862.44;5002314;28;20026;-66
2021/12/05 12:43:51;;;;;;;9.07;3.42;;;;;;;4.33;100.00;99869.09;5000074;28;20122;-67
2021/12/05 12:46:42;;;;;;;10.38;3.58;;;;;;;4.28;100.00;99874.63;5005828;28;20033;-68
2021/12/05 12:49:14;;;;;;;7.55;3.03;;;;;;;4.23;100.00;99876.75;5001242;28;20041;-66
2021/12/05 12:51:43;;;;;;;7.60;4.25;;;;;;;4.33;100.00;99871.00;4998897;28;20041;-67
2021/12/05 12:54:23;;;;;;;4.95;2.90;;;;;;;4.22;100.00;99885.88;5005392;28;20491;-66
2021/12/05 12:57:12;;;;;;;6.75;3.83;;;;;;;4.20;100.00;99893.41;5001674;28;20068;-66
2021/12/05 13:00:13;;;;;;;6.78;3.33;;;;;;;4.20;100.00;99888.84;4998257;28;20484;-66
2021/12/05 13:07:21;;;;;;;7.85;3.70;;;;;;;4.14;100.00;99889.41;5009383;28;20037;-66
2021/12/05 13:11:13;;;;;;;6.55;3.30;;;;;;;4.27;100.00;99893.63;5004047;28;20088;-67
2021/12/05 13:13:42;;;;;;;6.25;3.47;;;;;;;4.24;100.00;99895.06;5001268;28;20041;-67
2021/12/05 13:16:22;;;;;;;10.73;4.45;;;;;;;4.21;100.00;99894.94;5003775;28;20121;-67
2021/12/05 13:18:56;;;;;;;7.03;4.43;;;;;;;4.20;100.00;99898.72;5003935;28;20562;-67
2021/12/05 13:21:36;;;;;;;10.20;3.95;;;;;;;4.29;100.00;99912.72;5002219;28;20124;-66
2021/12/05 13:24:27;;;;;;;10.82;3.15;;;;;;;4.24;100.00;99908.38;5001759;28;20038;-66
2021/12/05 13:27:05;;;;;;;8.20;3.28;;;;;;;4.30;100.00;99911.59;5006531;28;20109;-67
2021/12/05 13:29:34;;;;;;;14.05;3.97;;;;;;;4.23;100.00;99917.50;5001263;28;20038;-67
2021/12/05 13:32:11;;;;;;;13.68;3.92;;;;;;;4.23;100.00;99919.38;5004073;28;20498;-66
2021/12/05 13:34:40;;;;;;;10.63;4.18;;;;;;;4.25;100.00;99909.94;4999550;28;20517;-68
2021/12/05 13:37:05;;;;;;;9.40;3.63;;;;;;;4.27;100.00;99922.94;5003787;28;20038;-66
2021/12/05 13:39:59;;;;;;;7.13;3.80;;;;;;;4.27;100.00;99929.03;5004769;28;20029;-67
2021/12/05 13:42:42;;;;;;;8.48;4.40;;;;;;;4.24;100.00;99928.94;5005468;28;20297;-67
2021/12/05 13:45:16;;;;;;;8.35;3.40;;;;;;;4.18;100.00;99935.56;5003292;28;20049;-67
2021/12/05 13:47:51;;;;;;;13.20;4.28;;;;;;;4.26;100.00;99934.69;5005060;28;20639;-68
2021/12/05 13:50:16;;;;;;;11.23;4.05;;;;;;;4.11;100.00;99930.78;5003014;28;20172;-68
2021/12/05 13:52:46;;;;;;;8.18;4.03;;;;;;;4.12;100.00;99939.56;4998186;28;20530;-67
2021/12/05 13:55:50;;;;;;;8.88;3.25;;;;;;;4.11;100.00;99943.31;5004400;28;20037;-67
2021/12/05 13:58:16;;;;;;;6.22;2.92;;;;;;;4.14;100.00;99958.66;5000799;28;20049;-67
2021/12/05 14:01:07;;;;;;;6.90;3.50;;;;;;;4.13;100.00;99954.41;5008309;28;20034;-68
2021/12/05 14:03:42;;;;;;;10.90;4.05;;;;;;;4.18;100.00;99967.56;4967711;28;20046;-67
2021/12/05 14:06:29;;;;;;;7.22;3.47;;;;;;;4.19;100.00;99967.22;4999438;28;20732;-67
2021/12/05 14:09:02;;;;;;;6.90;3.42;;;;;;;4.19;100.00;99971.75;5000861;28;20111;-67
2021/12/05 14:11:28;;;;;;;8.65;4.10;;;;;;;4.27;100.00;99973.56;4995418;28;20038;-67
2021/12/05 14:13:54;;;;;;;9.70;3.30;;;;;;;4.20;100.00;99983.97;5002217;28;20378;-68
2021/12/05 14:16:20;;;;;;;8.30;3.45;;;;;;;4.24;100.00;99977.66;5001214;28;20033;-65
2021/12/05 14:18:46;;;;;;;12.93;3.75;;;;;;;4.28;100.00;99989.22;5009507;28;20368;-65
2021/12/05 14:21:13;;;;;;;6.88;3.28;;;;;;;4.23;100.00;99989.44;5002758;28;20045;-66
2021/12/05 14:23:39;;;;;;;8.60;3.60;;;;;;;4.23;100.00;99992.09;5001547;28;20038;-66
2021/12/05 14:26:19;;;;;;;8.38;4.05;;;;;;;4.20;100.00;99999.97;5009175;28;20125;-67
2021/12/05 14:29:14;;;;;;;6.53;3.00;;;;;;;4.19;100.00;100009.06;4997613;28;20042;-66
2021/12/05 14:31:46;;;;;;;6.35;3.15;;;;;;;4.13;100.00;100010.34;5000277;28;20495;-66
2021/12/05 14:34:12;;;;;;;10.63;4.32;;;;;;;4.14;100.00;100018.00;5009334;28;20387;-66
2021/12/05 14:36:54;;;;;;;8.30;3.03;;;;;;;4.17;100.00;100019.25;4989885;28;20462;-66
2021/12/05 14:39:22;;;;;;;4.35;2.60;;;;;;;4.05;100.00;100024.53;4992979;28;20026;-64
2021/12/05 14:41:53;;;;;;;4.65;2.72;;;;;;;4.06;100.00;100029.56;4995647;28;20049;-65
2021/12/05 14:44:20;;;;;;;7.50;2.85;;;;;;;3.94;100.00;100034.03;5000075;28;20503;-66
2021/12/05 14:47:03;;;;;;;9.48;2.22;;;;;;;4.00;100.00;100041.50;4990992;28;20249;-67
2021/12/05 14:49:32;;;;;;;5.80;3.50;;;;;;;4.00;100.00;100043.38;5000983;28;20093;-66
2021/12/05 14:51:58;;;;;;;7.18;3.40;;;;;;;3.95;100.00;100044.34;4963765;23;1215763;-66
2021/12/05 14:54:32;;;;;;;9.40;2.85;;;;;;;3.95;100.00;100047.00;4979985;28;20156;-66
2021/12/05 14:57:04;;;;;;;7.55;3.35;;;;;;;3.99;100.00;100047.16;4976251;28;20050;-66
2021/12/05 14:59:30;;;;;;;7.20;3.55;;;;;;;4.02;100.00;100051.81;4988519;28;20134;-66
2021/12/05 15:01:57;;;;;;;8.93;2.75;;;;;;;4.06;100.00;100050.84;4989771;28;20066;-67
2021/12/05 15:04:28;;;;;;;7.57;3.08;;;;;;;3.97;100.00;100060.03;4985878;28;20038;-66
2021/12/05 15:06:54;;;;;;;5.63;1.98;;;;;;;3.92;100.00;100054.88;4988433;28;20042;-66
2021/12/05 15:09:24;;;;;;;8.45;2.65;;;;;;;3.88;100.00;100068.06;4989219;28;20038;-67
2021/12/05 15:12:06;;;;;;;6.57;3.22;;;;;;;3.88;100.00;100075.25;4985450;28;20129;-65
2021/12/05 15:14:37;;;;;;;7.72;2.70;;;;;;;3.89;100.00;100082.94;4987226;28;20030;-66
2021/12/05 15:17:08;;;;;;;5.03;2.50;;;;;;;3.86;100.00;100082.78;4986349;28;20038;-66
2021/12/05 15:19:36;;;;;;;8.48;3.15;;;;;;;3.95;100.00;100078.97;4984898;28;20125;-67
2021/12/05 15:22:03;;;;;;;5.03;2.90;;;;;;;3.92;100.00;100089.50;4986514;28;20025;-64
2021/12/05 15:24:30;;;;;;;6.53;2.83;;;;;;;3.75;100.00;100089.63;4987841;28;20518;-66
2021/12/05 15:26:58;;;;;;;8.50;3.00;;;;;;;3.74;100.00;100096.81;4983704;28;20030;-67
2021/12/05 15:29:24;;;;;;;6.38;2.63;;;;;;;3.77;100.00;100101.50;4985688;28;20046;-63
2021/12/05 15:31:50;;;;;;;4.50;2.75;;;;;;;3.79;100.00;100104.63;4990155;28;20398;-67
2021/12/05 15:34:24;;;;;;;6.30;2.42;;;;;;;3.83;100.00;100107.41;4987942;28;20038;-67
2021/12/05 15:36:50;;;;;;;6.22;2.25;;;;;;;3.62;100.00;100113.47;5002290;28;20034;-66
2021/12/05 15:39:20;;;;;;;3.53;2.45;;;;;;;3.53;100.00;100109.31;4989680;28;20113;-66
2021/12/05 15:41:55;;;;;;;5.85;2.50;;;;;;;3.53;100.00;100115.41;4990702;28;20053;-67
2021/12/05 15:44:27;;;;;;;13.68;3.15;;;;;;;3.52;100.00;100113.84;4985147;28;20061;-66
2021/12/05 15:47:20;;;;;;;3.83;2.47;;;;;;;3.56;100.00;100120.09;4985959;28;20399;-66
2021/12/05 15:49:55;;;;;;;8.05;3.45;;;;;;;3.63;100.00;100120.38;4985176;28;20461;-67
2021/12/05 15:52:25;;;;;;;8.98;3.60;;;;;;;3.68;100.00;100125.50;4984464;28;20026;-67
2021/12/05 15:54:52;;;;;;;5.03;1.93;;;;;;;3.68;100.00;100127.38;4988795;28;20034;-65
2021/12/05 15:57:28;;;;;;;5.35;2.92;;;;;;;3.73;100.00;100131.75;4990135;28;20289;-66
2021/12/05 15:59:54;;;;;;;5.53;3.05;;;;;;;3.58;100.00;100135.75;4985992;28;20034;-66
2021/12/05 16:02:23;;;;;;;5.50;2.60;;;;;;;3.61;100.00;100141.22;4987111;28;20030;-66
2021/12/05 16:04:49;;;;;;;6.63;3.13;;;;;;;3.65;100.00;100136.03;4983892;28;20760;-65
2021/12/05 16:07:17;;;;;;;6.88;3.15;;;;;;;3.62;100.00;100153.41;4980815;28;20121;-67
2021/12/05 16:09:45;;;;;;;6.53;2.78;;;;;;;3.66;100.00;100158.88;4985281;28;20446;-67
2021/12/05 16:12:20;;;;;;;4.95;1.95;;;;;;;3.59;100.00;100161.25;4986733;28;20156;-65
2021/12/05 16:14:52;;;;;;;10.30;3.65;;;;;;;3.65;100.00;100165.31;4976308;28;20604;-67
2021/12/05 16:17:29;;;;;;;6.75;3.03;;;;;;;3.68;100.00;100165.44;4985818;28;20109;-66
2021/12/05 16:20:12;;;;;;;4.18;2.70;;;;;;;3.74;100.00;100178.56;4984196;28;20041;-66
2021/12/05 16:23:16;;;;;;;5.60;2.67;;;;;;;3.73;100.00;100182.34;4987608;28;20027;-66
2021/12/05 16:25:47;;;;;;;4.68;2.28;;;;;;;3.73;100.00;100175.13;4903370;29;20044;-66
2021/12/05 16:28:14;;;;;;;5.50;3.33;;;;;;;3.73;100.00;100185.78;4975750;28;20053;-66
2021/12/05 16:30:45;;;;;;;10.50;3.17;;;;;;;3.79;100.00;100181.06;4987090;28;20487;-68
2021/12/05 16:33:13;;;;;;;6.07;3.35;;;;;;;3.80;100.00;100196.69;4988717;28;20031;-66
2021/12/05 16:35:46;;;;;;;10.73;4.30;;;;;;;3.84;100.00;100199.50;4982062;28;20125;-66
2021/12/05 16:38:45;;;;;;;8.50;3.22;;;;;;;3.73;100.00;100193.78;4983862;28;20038;-66
2021/12/05 16:41:18;;;;;;;5.70;2.60;;;;;;;3.63;100.00;100207.44;4978435;28;20555;-67
2021/12/05 16:44:04;;;;;;;5.05;2.97;;;;;;;3.70;100.00;100205.03;5001181;28;20085;-65
2021/12/05 16:46:33;;;;;;;13.18;3.75;;;;;;;3.66;100.00;100209.44;4986903;28;20057;-64
2021/12/05 16:49:02;;;;;;;8.25;3.97;;;;;;;3.58;100.00;100219.03;4984412;28;20081;-67
2021/12/05 16:51:51;;;;;;;5.72;2.65;;;;;;;3.62;100.00;100225.28;4975991;28;20390;-66
2021/12/05 16:54:24;;;;;;;5.70;3.00;;;;;;;3.65;100.00;100219.31;4986326;28;20046;-66
2021/12/05 16:57:20;;;;;;;7.85;3.53;;;;;;;3.67;100.00;100213.69;5000919;28;20038;-64
2021/12/05 16:59:54;;;;;;;7.00;3.47;;;;;;;3.70;100.00;100217.59;4987431;28;20113;-65
2021/12/05 17:02:25;;;;;;;10.35;2.88;;;;;;;3.75;100.00;100226.19;4985366;28;20053;-66
2021/12/05 17:05:06;;;;;;;6.80;3.05;;;;;;;3.67;100.00;100234.97;4987050;28;20112;-65
2021/12/05 17:07:40;;;;;;;9.05;3.05;;;;;;;3.74;100.00;100237.91;4992051;28;20041;-66
2021/12/05 17:10:10;;;;;;;9.32;2.92;;;;;;;3.79;100.00;100232.44;4990440;28;20580;-66
2021/12/05 17:12:36;;;;;;;6.75;2.75;;;;;;;3.76;100.00;100246.34;4978741;28;20418;-65
2021/12/05 17:15:21;;;;;;;9.75;3.33;;;;;;;3.73;100.00;100251.53;4990502;28;20049;-66
2021/12/05 17:17:49;;;;;;;5.28;2.17;;;;;;;3.75;100.00;100250.13;4992813;28;20155;-65
2021/12/05 17:20:28;;;;;;;7.35;2.60;;;;;;;3.81;100.00;100242.75;4991224;28;20030;-67
2021/12/05 17:23:14;;;;;;;4.60;3.05;;;;;;;3.80;100.00;100247.28;4989507;28;20508;-66
2021/12/05 17:25:45;;;;;;;8.98;2.90;;;;;;;3.79;100.00;100255.59;4992306;28;20091;-66